Time;durP1;ratioP1;P1;durP2;ratioP2;P2;SDS_P1;SDS_P2;PMS_P1;PMS_P2;Temp;Humidity;BMP_temperature;BMP_pressure;BME280_temperature;BME280_humidity;BME280_pressure;Samples;Min_cycle;Max_cycle;Signal;HPM_P1;HPM_P2
2022/09/23 00:03:01;;;;;;;2.65;1.30;;;;;;;8.04;100.00;101007.81;6016154;29;20075;-91
2022/09/23 00:06:11;;;;;;;1.52;1.27;;;;;;;8.02;100.00;101010.47;6009205;29;20565;-90
2022/09/23 00:09:13;;;;;;;2.92;1.48;;;;;;;8.02;100.00;101009.66;6018175;29;20082;-91
2022/09/23 00:12:17;;;;;;;1.67;1.40;;;;;;;7.97;100.00;101005.63;6025694;29;20053;-91
2022/09/23 00:15:19;;;;;;;3.70;1.70;;;;;;;7.99;100.00;101008.91;6012032;29;20057;-91
2022/09/23 00:18:21;;;;;;;1.30;1.20;;;;;;;7.96;100.00;100998.78;6019296;29;20049;-91
2022/09/23 00:21:24;;;;;;;2.15;1.55;;;;;;;7.97;100.00;101003.03;6012620;29;20460;-90
2022/09/23 00:24:31;;;;;;;3.50;1.20;;;;;;;7.97;100.00;100995.31;6016357;29;20074;-90
2022/09/23 00:27:33;;;;;;;1.40;1.30;;;;;;;8.01;100.00;100993.38;6024148;29;20463;-91
2022/09/23 00:30:34;;;;;;;2.58;1.50;;;;;;;7.99;100.00;100990.88;6040740;29;20049;-90
2022/09/23 00:33:37;;;;;;;1.30;1.20;;;;;;;8.01;100.00;100988.22;6039993;29;20048;-91
2022/09/23 00:36:39;;;;;;;2.70;1.60;;;;;;;8.00;100.00;100983.97;6019355;29;20325;-91
2022/09/23 00:39:41;;;;;;;1.75;1.45;;;;;;;8.02;100.00;100989.03;6032441;29;20056;-90
2022/09/23 00:42:50;;;;;;;3.08;1.50;;;;;;;8.02;100.00;100983.88;6016406;29;20041;-90
2022/09/23 00:45:53;;;;;;;1.83;1.65;;;;;;;8.01;100.00;100979.66;6037893;29;20068;-90
2022/09/23 00:49:02;;;;;;;1.33;1.23;;;;;;;7.98;100.00;100981.50;6022713;29;20040;-91
2022/09/23 00:52:11;;;;;;;2.40;1.38;;;;;;;7.99;100.00;100977.97;6022002;29;20518;-90
2022/09/23 00:55:18;;;;;;;2.20;1.42;;;;;;;7.98;100.00;100984.06;6024462;29;20435;-90
2022/09/23 00:58:26;;;;;;;2.55;1.38;;;;;;;7.99;100.00;100974.56;6019087;29;20041;-91
2022/09/23 01:01:28;;;;;;;2.55;1.60;;;;;;;7.93;100.00;100968.06;6024902;29;20037;-90
2022/09/23 01:04:30;;;;;;;2.38;1.60;;;;;;;7.92;100.00;100968.97;6037816;29;20569;-91
2022/09/23 01:07:33;;;;;;;1.88;1.58;;;;;;;7.90;100.00;100964.81;6015608;29;20240;-90
2022/09/23 01:10:46;;;;;;;2.17;1.73;;;;;;;7.89;100.00;100965.75;6027817;29;20145;-90
2022/09/23 01:14:07;;;;;;;1.75;1.63;;;;;;;7.88;100.00;100961.53;6016820;29;20066;-90
2022/09/23 01:17:20;;;;;;;4.05;1.50;;;;;;;7.86;100.00;100960.78;6027823;29;20054;-90
2022/09/23 01:20:47;;;;;;;2.97;1.70;;;;;;;7.88;100.00;100954.63;6018490;29;20041;-91
2022/09/23 01:24:23;;;;;;;2.78;1.80;;;;;;;7.86;100.00;100955.63;6019150;29;20060;-90
2022/09/23 01:27:35;;;;;;;2.40;1.60;;;;;;;7.86;100.00;100946.16;5982326;29;20061;-90
2022/09/23 01:30:46;;;;;;;1.90;1.60;;;;;;;7.87;100.00;100949.53;5991139;29;20050;-90
2022/09/23 01:33:56;;;;;;;2.13;1.92;;;;;;;7.89;100.00;100945.94;5996377;29;20073;-90
2022/09/23 01:37:34;;;;;;;2.13;1.92;;;;;;;7.93;100.00;100937.13;5995992;29;20062;-90
2022/09/23 01:41:03;;;;;;;2.92;1.88;;;;;;;7.97;100.00;100933.44;5984131;29;20056;-90
2022/09/23 01:44:40;;;;;;;2.45;1.60;;;;;;;7.99;100.00;100935.91;5990436;29;20140;-90
2022/09/23 01:47:57;;;;;;;2.08;1.90;;;;;;;7.95;100.00;100930.13;5984199;29;20072;-90
2022/09/23 01:51:12;;;;;;;2.53;1.80;;;;;;;7.90;100.00;100929.59;6004455;29;20470;-90
2022/09/23 01:54:56;;;;;;;4.43;1.65;;;;;;;7.89;100.00;100930.50;5998910;29;20561;-90
2022/09/23 01:58:22;;;;;;;1.80;1.70;;;;;;;7.82;100.00;100918.91;5975338;29;20067;-90
2022/09/23 02:01:38;;;;;;;1.95;1.75;;;;;;;7.79;100.00;100918.25;5962362;29;20050;-90
2022/09/23 02:04:50;;;;;;;3.13;2.00;;;;;;;7.75;100.00;100918.47;5980002;29;20589;-90
2022/09/23 02:07:58;;;;;;;2.10;1.90;;;;;;;7.72;100.00;100910.91;5994963;29;20464;-90
2022/09/23 02:11:07;;;;;;;5.72;1.90;;;;;;;7.70;100.00;100915.34;5980293;29;20081;-90
2022/09/23 02:14:32;;;;;;;1.73;1.55;;;;;;;7.71;100.00;100916.97;6000508;29;20145;-90
2022/09/23 02:17:42;;;;;;;1.92;1.73;;;;;;;7.70;100.00;100915.34;6000833;29;20046;-90
2022/09/23 02:20:46;;;;;;;1.70;1.60;;;;;;;7.67;100.00;100912.91;6002931;29;20050;-90
2022/09/23 02:23:53;;;;;;;2.22;1.67;;;;;;;7.65;100.00;100907.06;5997116;29;20480;-90
2022/09/23 02:27:33;;;;;;;1.60;1.45;;;;;;;7.63;100.00;100897.78;6005020;29;20259;-90
2022/09/23 02:30:47;;;;;;;1.67;1.57;;;;;;;7.60;100.00;100900.50;5990500;29;20054;-90
2022/09/23 02:34:11;;;;;;;3.50;1.83;;;;;;;7.55;100.00;100903.34;5995433;29;20057;-90
2022/09/23 02:37:43;;;;;;;2.20;1.67;;;;;;;7.51;100.00;100897.56;6025590;29;20049;-90
2022/09/23 02:40:58;;;;;;;2.85;1.60;;;;;;;7.46;100.00;100894.44;6016363;29;20057;-90
2022/09/23 02:44:02;;;;;;;2.67;1.70;;;;;;;7.42;100.00;100892.16;6011525;29;20052;-90
2022/09/23 02:47:04;;;;;;;2.83;1.60;;;;;;;7.37;100.00;100889.84;6019387;29;20046;-90
2022/09/23 02:50:08;;;;;;;1.75;1.65;;;;;;;7.34;100.00;100896.00;6015630;29;20041;-90
2022/09/23 02:53:10;;;;;;;3.38;1.83;;;;;;;7.36;100.00;100887.38;6024106;29;20050;-90
2022/09/23 02:56:19;;;;;;;2.03;1.70;;;;;;;7.36;100.00;100880.47;6011997;29;20182;-90
2022/09/23 02:59:22;;;;;;;2.20;1.88;;;;;;;7.37;100.00;100889.03;6016423;29;20046;-91
2022/09/23 03:02:33;;;;;;;2.85;1.90;;;;;;;7.35;100.00;100899.41;6017188;29;20046;-90
2022/09/23 03:05:43;;;;;;;2.33;1.63;;;;;;;7.37;100.00;100889.84;6006466;29;20500;-90
2022/09/23 03:08:55;;;;;;;2.20;1.70;;;;;;;7.36;100.00;100892.53;6017731;29;20072;-90
2022/09/23 03:12:14;;;;;;;2.60;1.92;;;;;;;7.32;100.00;100887.53;6028822;29;20299;-90
2022/09/23 03:15:34;;;;;;;1.85;1.65;;;;;;;7.28;100.00;100891.22;6018277;29;20060;-90
2022/09/23 03:18:54;;;;;;;1.65;1.40;;;;;;;7.25;100.00;100881.09;6039777;29;20069;-90
2022/09/23 03:22:13;;;;;;;3.05;2.03;;;;;;;7.20;100.00;100882.28;6018752;29;20193;-93
2022/09/23 03:25:20;;;;;;;3.08;2.20;;;;;;;7.14;100.00;100873.19;6016410;29;20045;-90
2022/09/23 03:28:24;;;;;;;1.75;1.60;;;;;;;7.14;100.00;100875.75;6013232;29;20194;-91
2022/09/23 03:31:27;;;;;;;2.75;1.70;;;;;;;7.10;100.00;100869.97;6013232;29;20626;-90
2022/09/23 03:34:33;;;;;;;2.00;1.70;;;;;;;7.09;100.00;100867.47;6021887;29;20038;-90
2022/09/23 03:37:43;;;;;;;2.13;1.92;;;;;;;7.07;100.00;100870.13;6017325;29;20042;-90
2022/09/23 03:40:49;;;;;;;4.00;1.73;;;;;;;7.08;100.00;100868.38;6022940;29;20321;-90
2022/09/23 03:43:52;;;;;;;1.80;1.70;;;;;;;7.07;100.00;100867.56;6024519;29;20042;-90
2022/09/23 03:46:57;;;;;;;2.17;1.80;;;;;;;7.08;100.00;100869.25;6018784;29;20349;-90
2022/09/23 03:50:00;;;;;;;2.45;2.00;;;;;;;7.08;100.00;100868.38;6016913;29;20597;-90
2022/09/23 03:53:02;;;;;;;5.32;2.00;;;;;;;7.06;100.00;100863.34;6030320;29;20051;-90
2022/09/23 03:56:04;;;;;;;2.08;1.88;;;;;;;7.08;100.00;100860.66;6028377;29;20041;-91
2022/09/23 03:59:06;;;;;;;1.98;1.58;;;;;;;7.09;100.00;100852.88;6018848;29;20061;-90
2022/09/23 04:02:08;;;;;;;2.65;1.80;;;;;;;7.11;100.00;100853.59;6013502;29;20038;-90
2022/09/23 04:05:12;;;;;;;4.75;2.00;;;;;;;7.12;100.00;100842.38;6019316;29;20050;-90
2022/09/23 04:08:14;;;;;;;2.78;2.20;;;;;;;7.15;100.00;100848.28;6018158;29;20072;-90
2022/09/23 04:11:16;;;;;;;2.10;1.90;;;;;;;7.14;100.00;100833.75;6034413;29;20060;-90
2022/09/23 04:14:19;;;;;;;1.73;1.45;;;;;;;7.11;100.00;100830.44;6014134;29;20080;-90
2022/09/23 04:17:21;;;;;;;2.92;1.92;;;;;;;7.10;100.00;100833.09;6011521;29;20086;-90
2022/09/23 04:20:22;;;;;;;3.05;1.85;;;;;;;7.07;100.00;100828.94;6027319;29;20072;-90
2022/09/23 04:23:26;;;;;;;2.83;1.70;;;;;;;7.04;100.00;100824.00;6016913;29;20493;-90
2022/09/23 04:26:27;;;;;;;2.30;2.10;;;;;;;7.04;100.00;100820.59;6023086;29;20121;-90
2022/09/23 04:29:30;;;;;;;2.05;1.85;;;;;;;7.01;100.00;100820.78;6007312;29;20041;-90
2022/09/23 04:32:32;;;;;;;2.58;2.00;;;;;;;7.00;100.00;100826.84;6022551;29;20048;-90
2022/09/23 04:35:34;;;;;;;2.45;1.80;;;;;;;7.00;100.00;100822.50;6019061;29;20045;-90
2022/09/23 04:38:48;;;;;;;4.85;2.22;;;;;;;7.01;100.00;100821.59;6016601;29;20111;-90
2022/09/23 04:41:50;;;;;;;3.85;2.05;;;;;;;7.01;100.00;100819.03;6019067;29;20082;-90
2022/09/23 04:44:53;;;;;;;3.08;2.78;;;;;;;7.03;100.00;100818.94;6020303;29;20185;-90
2022/09/23 04:47:57;;;;;;;2.30;1.90;;;;;;;7.03;100.00;100817.22;6027532;29;20041;-90
2022/09/23 04:51:07;;;;;;;3.25;1.60;;;;;;;7.04;100.00;100813.69;6016213;29;20048;-90
2022/09/23 04:54:10;;;;;;;2.15;1.80;;;;;;;7.03;100.00;100813.78;6033575;29;20050;-90
2022/09/23 04:57:13;;;;;;;1.90;1.40;;;;;;;7.03;100.00;100813.78;6024051;29;20307;-90
2022/09/23 05:00:15;;;;;;;3.42;1.98;;;;;;;7.04;100.00;100813.69;6017748;29;20050;-90
2022/09/23 05:03:17;;;;;;;3.58;2.10;;;;;;;7.07;100.00;100817.84;6009994;29;20061;-90
2022/09/23 05:06:20;;;;;;;3.42;2.13;;;;;;;7.10;100.00;100818.50;6020782;29;20430;-90
2022/09/23 05:09:21;;;;;;;3.17;2.30;;;;;;;7.11;100.00;100814.16;6023953;29;20526;-90
2022/09/23 05:12:23;;;;;;;2.45;2.20;;;;;;;7.13;100.00;100822.63;6033382;29;20127;-90
2022/09/23 05:15:26;;;;;;;1.85;1.75;;;;;;;7.18;100.00;100823.19;6003428;29;20050;-90
2022/09/23 05:18:32;;;;;;;3.58;2.17;;;;;;;7.19;100.00;100827.41;6034929;29;20049;-90
2022/09/23 05:21:37;;;;;;;3.33;1.80;;;;;;;7.22;100.00;100821.25;6025886;29;20168;-90
2022/09/23 05:24:39;;;;;;;2.60;1.70;;;;;;;7.28;100.00;100824.28;6029056;29;20400;-90
2022/09/23 05:27:41;;;;;;;2.67;2.03;;;;;;;7.31;100.00;100824.09;6023379;29;20037;-90
2022/09/23 05:30:43;;;;;;;3.53;1.95;;;;;;;7.34;100.00;100810.19;6000390;29;20057;-90
2022/09/23 05:33:48;;;;;;;2.47;2.03;;;;;;;7.41;100.00;100810.66;6019698;29;20229;-90
2022/09/23 05:36:50;;;;;;;1.90;1.70;;;;;;;7.48;100.00;100811.94;6020240;29;20470;-90
2022/09/23 05:39:51;;;;;;;3.13;2.05;;;;;;;7.55;100.00;100808.03;6028813;29;21148;-90
2022/09/23 05:42:53;;;;;;;2.90;1.95;;;;;;;7.61;100.00;100804.28;6025170;29;20543;-90
2022/09/23 05:46:05;;;;;;;5.30;2.08;;;;;;;7.70;100.00;100812.28;6027651;29;20086;-89
2022/09/23 05:49:09;;;;;;;2.30;2.10;;;;;;;7.78;100.00;100814.38;6013439;29;20049;-89
2022/09/23 05:52:11;;;;;;;5.53;2.13;;;;;;;7.85;100.00;100810.50;6030099;29;20052;-89
2022/09/23 05:55:13;;;;;;;2.72;2.03;;;;;;;7.90;100.00;100812.75;6042805;29;20056;-90
2022/09/23 05:58:15;;;;;;;2.65;2.20;;;;;;;7.95;100.00;100818.47;6026750;29;20045;-89
2022/09/23 06:01:26;;;;;;;2.20;2.00;;;;;;;7.99;100.00;100817.31;6016642;29;20045;-89
2022/09/23 06:04:28;;;;;;;3.75;2.17;;;;;;;8.09;100.00;100815.81;6019234;29;20053;-89
2022/09/23 06:07:31;;;;;;;4.65;2.05;;;;;;;8.15;100.00;100819.78;6018774;29;20059;-90
2022/09/23 06:10:42;;;;;;;5.28;2.47;;;;;;;8.23;100.00;100814.13;6023076;29;20083;-89
2022/09/23 06:13:43;;;;;;;5.10;2.08;;;;;;;8.29;100.00;100805.97;6019092;29;20202;-89
2022/09/23 06:16:45;;;;;;;5.43;2.00;;;;;;;8.35;100.00;100814.16;6022519;29;21034;-90
2022/09/23 06:19:47;;;;;;;3.13;2.05;;;;;;;8.44;100.00;100815.31;6021490;29;20529;-89
2022/09/23 06:22:49;;;;;;;2.05;1.80;;;;;;;8.50;100.00;100806.38;6019939;29;20458;-90
2022/09/23 06:26:03;;;;;;;3.60;2.05;;;;;;;8.54;100.00;100810.38;6031113;29;20416;-89
2022/09/23 06:29:11;;;;;;;3.83;2.15;;;;;;;8.54;100.00;100808.63;6015906;29;20152;-89
2022/09/23 06:32:13;;;;;;;6.38;3.47;;;;;;;8.57;100.00;100810.19;6016946;29;20492;-90
2022/09/23 06:35:15;;;;;;;2.80;2.25;;;;;;;8.53;100.00;100813.91;6011931;29;20242;-90
2022/09/23 06:38:29;;;;;;;5.47;3.20;;;;;;;8.52;100.00;100809.66;6006054;29;20049;-89
2022/09/23 06:41:31;;;;;;;3.38;2.90;;;;;;;8.50;100.00;100809.78;6021289;29;20053;-90
2022/09/23 06:44:33;;;;;;;3.65;3.30;;;;;;;8.48;100.00;100806.47;6029915;29;20052;-89
2022/09/23 06:47:36;;;;;;;3.90;2.50;;;;;;;8.48;100.00;100803.88;6020212;29;20053;-89
2022/09/23 06:50:38;;;;;;;4.38;2.40;;;;;;;8.46;100.00;100808.31;6013256;29;20037;-89
2022/09/23 06:53:40;;;;;;;6.97;1.83;;;;;;;8.49;100.00;100807.28;6023145;29;20049;-89
2022/09/23 06:56:46;;;;;;;2.50;2.00;;;;;;;8.49;100.00;100810.69;6015799;29;20066;-89
2022/09/23 06:59:49;;;;;;;3.53;2.22;;;;;;;8.51;100.00;100818.34;6020498;29;20543;-90
2022/09/23 07:02:51;;;;;;;2.60;2.03;;;;;;;8.51;100.00;100816.56;6024231;29;20045;-90
2022/09/23 07:05:56;;;;;;;2.38;1.88;;;;;;;8.52;100.00;100813.09;6022790;29;20048;-89
2022/09/23 07:08:59;;;;;;;2.97;2.17;;;;;;;8.53;100.00;100812.16;6021556;29;20046;-90
2022/09/23 07:12:01;;;;;;;2.70;1.95;;;;;;;8.56;100.00;100804.19;6023623;29;20519;-90
2022/09/23 07:15:03;;;;;;;2.22;1.90;;;;;;;8.61;100.00;100806.47;6011450;29;20054;-90
2022/09/23 07:18:06;;;;;;;2.22;2.03;;;;;;;8.65;100.00;100807.13;6010532;29;20295;-89
2022/09/23 07:21:14;;;;;;;3.58;2.13;;;;;;;8.74;100.00;100806.47;6022352;29;20409;-90
2022/09/23 07:24:16;;;;;;;2.80;1.92;;;;;;;8.78;100.00;100798.44;6046922;29;20041;-90
2022/09/23 07:27:18;;;;;;;3.03;2.10;;;;;;;8.86;100.00;100794.53;6021649;29;20080;-90
2022/09/23 07:30:20;;;;;;;2.45;2.00;;;;;;;8.96;100.00;100801.53;6008143;29;20046;-90
2022/09/23 07:33:30;;;;;;;2.40;2.15;;;;;;;9.09;100.00;100809.25;6022556;29;20061;-90
2022/09/23 07:36:36;;;;;;;3.75;2.17;;;;;;;9.22;100.00;100820.44;6017238;29;20519;-90
2022/09/23 07:39:39;;;;;;;2.38;1.77;;;;;;;9.37;100.00;100821.13;6039287;29;20416;-89
2022/09/23 07:42:40;;;;;;;3.75;2.13;;;;;;;9.51;100.00;100812.41;6007349;29;20121;-89
2022/09/23 07:45:42;;;;;;;3.13;1.92;;;;;;;9.64;100.00;100805.47;6021164;29;20096;-89
2022/09/23 07:48:44;;;;;;;3.63;2.20;;;;;;;9.79;100.00;100811.31;6025980;29;20539;-89
2022/09/23 07:51:47;;;;;;;3.60;1.80;;;;;;;9.96;100.00;100801.50;6015067;29;20068;-89
2022/09/23 07:54:50;;;;;;;2.60;2.03;;;;;;;10.13;100.00;100801.91;6031424;29;20108;-90
2022/09/23 07:57:52;;;;;;;3.20;1.80;;;;;;;10.25;100.00;100800.22;6016894;29;20190;-90
2022/09/23 08:00:53;;;;;;;2.58;1.60;;;;;;;10.38;100.00;100810.50;6040781;29;20455;-90
2022/09/23 08:03:57;;;;;;;2.90;1.73;;;;;;;10.44;100.00;100804.91;6005295;29;20052;-90
2022/09/23 08:07:05;;;;;;;2.63;1.80;;;;;;;10.52;100.00;100799.97;6022535;29;20576;-90
2022/09/23 08:10:07;;;;;;;1.88;1.77;;;;;;;10.59;100.00;100807.28;6028657;29;20052;-90
2022/09/23 08:13:09;;;;;;;4.10;1.80;;;;;;;10.61;100.00;100798.47;6031516;29;20094;-89
2022/09/23 08:16:10;;;;;;;2.97;2.00;;;;;;;10.64;100.00;100794.84;6026875;29;20536;-90
2022/09/23 08:19:13;;;;;;;2.20;1.63;;;;;;;10.66;100.00;100795.53;6030352;29;20495;-89
2022/09/23 08:22:15;;;;;;;2.40;1.70;;;;;;;10.68;100.00;100806.59;6022892;29;20557;-90
2022/09/23 08:25:18;;;;;;;3.58;2.00;;;;;;;10.71;100.00;100809.78;6020023;29;20060;-89
2022/09/23 08:28:23;;;;;;;2.03;1.83;;;;;;;10.77;100.00;100809.31;6020049;29;20056;-90
2022/09/23 08:31:26;;;;;;;3.42;1.70;;;;;;;10.86;100.00;100807.81;6015658;29;20050;-90
2022/09/23 08:34:28;;;;;;;3.80;1.80;;;;;;;10.93;100.00;100797.78;6011515;29;20075;-89
2022/09/23 08:37:30;;;;;;;2.03;1.70;;;;;;;11.01;100.00;100797.22;6010338;29;20678;-89
2022/09/23 08:40:40;;;;;;;2.47;1.85;;;;;;;11.09;100.00;100800.06;6027952;29;20563;-89
2022/09/23 08:43:48;;;;;;;5.30;1.83;;;;;;;11.18;100.00;100799.34;6029266;29;20150;-89
2022/09/23 08:47:06;;;;;;;2.00;1.58;;;;;;;11.27;100.00;100801.22;6026440;29;20097;-89
2022/09/23 08:50:14;;;;;;;2.53;1.50;;;;;;;11.35;100.00;100800.63;6003642;29;20049;-89
2022/09/23 08:53:34;;;;;;;3.40;1.80;;;;;;;11.43;100.00;100801.69;6019472;29;20142;-89
2022/09/23 08:56:37;;;;;;;4.32;1.60;;;;;;;11.46;100.00;100800.63;6019327;29;20049;-89
2022/09/23 08:59:41;;;;;;;1.85;1.75;;;;;;;11.48;100.00;100798.72;6020700;29;20049;-89
2022/09/23 09:02:43;;;;;;;2.03;1.50;;;;;;;11.51;100.00;100802.84;6019934;29;20064;-89
2022/09/23 09:05:46;;;;;;;3.17;1.48;;;;;;;11.53;100.00;100791.41;6035856;29;20467;-89
2022/09/23 09:08:59;;;;;;;2.72;1.45;;;;;;;11.60;100.00;100791.75;6031221;29;20038;-89
2022/09/23 09:12:17;;;;;;;1.70;1.60;;;;;;;11.73;100.00;100789.84;6014906;29;20057;-89
2022/09/23 09:15:22;;;;;;;4.32;2.08;;;;;;;11.90;100.00;100795.47;6017746;29;20050;-89
2022/09/23 09:18:29;;;;;;;3.30;1.60;;;;;;;12.05;100.00;100795.06;6017914;29;20041;-89
2022/09/23 09:21:37;;;;;;;3.05;1.70;;;;;;;12.21;100.00;100788.63;6018847;29;20049;-89
2022/09/23 09:24:39;;;;;;;1.58;1.40;;;;;;;12.37;100.00;100788.19;6023286;29;20077;-90
2022/09/23 09:27:41;;;;;;;2.70;1.80;;;;;;;12.57;100.00;100791.72;6019889;29;20428;-89
2022/09/23 09:30:46;;;;;;;2.00;1.73;;;;;;;12.77;100.00;100792.66;6016253;29;20049;-89
2022/09/23 09:33:57;;;;;;;1.92;1.63;;;;;;;13.00;100.00;100791.56;6019960;29;20105;-90
2022/09/23 09:37:07;;;;;;;3.25;1.70;;;;;;;13.22;100.00;100782.75;6038923;29;20041;-89
2022/09/23 09:40:13;;;;;;;;;;;;;;;13.43;100.00;100785.28;6032161;29;20052;-89
2022/09/23 09:43:22;;;;;;;2.80;1.75;;;;;;;13.61;95.52;100774.25;6045138;29;19967;-89
2022/09/23 09:46:45;;;;;;;3.58;1.90;;;;;;;13.79;97.70;100772.63;6020260;29;20050;-91
2022/09/23 09:49:57;;;;;;;2.45;1.90;;;;;;;13.97;95.78;100780.56;6024327;29;20115;-91
2022/09/23 09:53:27;;;;;;;2.65;1.65;;;;;;;14.06;93.81;100764.16;6025217;29;20178;-90
2022/09/23 09:56:35;;;;;;;2.60;1.45;;;;;;;14.13;91.41;100770.41;6007359;29;20041;-90
2022/09/23 09:59:42;;;;;;;2.22;1.80;;;;;;;14.31;90.10;100767.94;6013340;29;20075;-90
2022/09/23 10:02:50;;;;;;;3.92;1.92;;;;;;;14.49;89.31;100765.44;6038626;29;20311;-91
2022/09/23 10:05:53;;;;;;;4.95;2.03;;;;;;;14.58;85.20;100762.03;6017973;29;20161;-90
2022/09/23 10:09:04;;;;;;;2.35;1.50;;;;;;;14.60;86.15;100757.47;6027198;29;20054;-90
2022/09/23 10:12:18;;;;;;;1.92;1.73;;;;;;;14.59;88.15;100747.22;6024502;29;20096;-90
2022/09/23 10:15:33;;;;;;;1.77;1.60;;;;;;;14.74;85.98;100743.19;6018862;29;20341;-90
2022/09/23 10:18:46;;;;;;;2.17;1.77;;;;;;;14.74;86.03;100735.38;6027249;29;20072;-89
2022/09/23 10:21:53;;;;;;;3.25;1.80;;;;;;;14.81;87.11;100733.03;6015977;29;20054;-90
2022/09/23 10:25:00;;;;;;;2.40;1.77;;;;;;;14.99;85.53;100727.84;6027291;29;20048;-89
2022/09/23 10:28:31;;;;;;;2.30;1.70;;;;;;;15.10;85.73;100727.66;6032229;29;20050;-89
2022/09/23 10:31:34;;;;;;;2.55;1.70;;;;;;;15.20;83.81;100730.19;6018595;29;20104;-90
2022/09/23 10:34:42;;;;;;;2.50;1.60;;;;;;;15.51;84.52;100722.88;6030040;29;20041;-89
2022/09/23 10:37:44;;;;;;;2.00;1.80;;;;;;;15.72;79.82;100727.81;6032422;29;20514;-89
2022/09/23 10:48:26;;;;;;;1.83;1.70;;;;;;;16.17;78.61;100719.03;6023523;29;20046;-89
2022/09/23 10:51:46;;;;;;;1.60;1.50;;;;;;;16.36;77.59;100723.25;6026054;29;20217;-88
2022/09/23 10:55:26;;;;;;;1.50;1.40;;;;;;;16.40;75.42;100721.97;6015502;29;20616;-89
2022/09/23 10:58:57;;;;;;;1.77;1.67;;;;;;;16.57;73.80;100718.47;6029045;29;20056;-89
2022/09/23 11:02:16;;;;;;;1.90;1.80;;;;;;;16.80;71.45;100715.34;6025365;29;20056;-89
2022/09/23 11:05:54;;;;;;;4.07;1.77;;;;;;;16.94;70.07;100711.28;6015957;29;20815;-90
2022/09/23 11:09:33;;;;;;;2.20;1.83;;;;;;;17.10;70.10;100705.31;5988587;29;20524;-90
2022/09/23 11:12:56;;;;;;;2.55;1.60;;;;;;;17.32;67.42;100706.50;5977644;29;20317;-90
2022/09/23 11:16:07;;;;;;;2.40;1.70;;;;;;;17.50;66.15;100704.56;5991525;29;20498;-89
2022/09/23 11:19:48;;;;;;;3.20;1.40;;;;;;;17.70;66.75;100707.69;5977929;29;20050;-89
2022/09/23 11:23:19;;;;;;;2.20;1.48;;;;;;;17.81;63.67;100704.78;5979231;29;20054;-90
2022/09/23 11:26:39;;;;;;;2.03;1.60;;;;;;;18.00;63.74;100703.63;5987341;29;20217;-90
2022/09/23 11:30:09;;;;;;;1.60;1.50;;;;;;;18.14;62.48;100693.47;5986483;29;20058;-90
2022/09/23 11:33:30;;;;;;;2.78;1.55;;;;;;;18.28;62.41;100688.34;5991718;29;20054;-90
2022/09/23 11:36:52;;;;;;;2.05;1.73;;;;;;;18.38;61.89;100693.38;5984074;29;20061;-90
2022/09/23 11:40:12;;;;;;;1.80;1.50;;;;;;;18.46;60.12;100685.53;5984733;29;20078;-90
2022/09/23 11:43:22;;;;;;;2.70;1.70;;;;;;;18.49;62.38;100677.31;5992245;29;20136;-90
2022/09/23 11:46:49;;;;;;;2.25;1.33;;;;;;;18.55;61.56;100672.38;6017906;29;20752;-90
2022/09/23 11:49:59;;;;;;;2.35;1.60;;;;;;;18.63;58.52;100673.19;6013407;29;20053;-90
2022/09/23 11:53:14;;;;;;;3.00;1.70;;;;;;;18.78;61.60;100667.22;6008799;29;20042;-89
2022/09/23 11:56:25;;;;;;;1.67;1.58;;;;;;;18.91;57.11;100663.06;6013112;29;20056;-90
2022/09/23 11:59:49;;;;;;;2.72;1.40;;;;;;;18.95;58.47;100658.28;6015797;29;20500;-90
2022/09/23 12:03:04;;;;;;;1.98;1.45;;;;;;;18.98;58.35;100657.13;6008893;29;20466;-90
2022/09/23 12:06:35;;;;;;;2.67;1.60;;;;;;;18.99;56.86;100648.28;6007875;29;21688;-90
2022/09/23 12:10:04;;;;;;;2.57;1.50;;;;;;;19.07;57.08;100649.03;6017715;29;20559;-90
2022/09/23 12:13:21;;;;;;;3.45;1.60;;;;;;;19.07;56.63;100646.41;6024647;29;20049;-90
2022/09/23 12:16:29;;;;;;;2.15;1.20;;;;;;;19.06;57.33;100644.78;6011712;29;20042;-90
2022/09/23 12:19:50;;;;;;;2.78;1.40;;;;;;;19.06;54.09;100638.72;6012574;29;20175;-90
2022/09/23 12:23:30;;;;;;;2.72;1.38;;;;;;;18.96;55.36;100641.56;6016293;29;20052;-90
2022/09/23 12:26:33;;;;;;;2.13;1.55;;;;;;;18.87;54.98;100650.47;6016991;29;20056;-89
2022/09/23 12:29:37;;;;;;;3.60;1.60;;;;;;;18.76;57.25;100646.44;6016159;29;20493;-90
2022/09/23 12:32:41;;;;;;;3.28;1.50;;;;;;;18.75;57.37;100642.13;6028328;29;20162;-89
2022/09/23 12:35:45;;;;;;;2.45;1.83;;;;;;;18.86;57.13;100638.34;6018295;29;20041;-90
2022/09/23 12:39:20;;;;;;;2.15;1.50;;;;;;;18.95;56.44;100632.03;6011031;29;20513;-89
2022/09/23 12:42:22;;;;;;;2.45;1.55;;;;;;;19.00;58.59;100629.72;6017901;29;20045;-90
2022/09/23 12:45:31;;;;;;;3.03;1.70;;;;;;;19.05;60.02;100626.56;6015856;29;20045;-89
2022/09/23 12:48:44;;;;;;;1.67;1.50;;;;;;;19.05;57.62;100623.94;6018199;29;20045;-90
2022/09/23 12:52:24;;;;;;;1.80;1.50;;;;;;;19.18;59.02;100626.00;6013056;29;20586;-90
2022/09/23 12:55:34;;;;;;;3.38;1.60;;;;;;;19.24;58.69;100617.44;6019066;29;20125;-90
2022/09/23 12:58:46;;;;;;;2.28;1.55;;;;;;;19.29;60.05;100615.09;6031487;29;20485;-89
2022/09/23 13:01:48;;;;;;;2.45;1.70;;;;;;;19.38;60.76;100606.19;6012043;29;20093;-89
2022/09/23 13:08:39;;;;;;;2.45;1.80;;;;;;;19.21;57.59;100605.47;6019630;29;20048;-90
2022/09/23 13:11:46;;;;;;;2.58;1.85;;;;;;;19.17;59.08;100603.38;6019710;29;20237;-89
2022/09/23 13:14:52;;;;;;;3.78;1.90;;;;;;;19.09;55.79;100597.19;6016648;29;20053;-89
2022/09/23 13:18:32;;;;;;;1.77;1.58;;;;;;;18.95;56.53;100595.31;6016087;29;20053;-89
2022/09/23 13:21:48;;;;;;;1.83;1.60;;;;;;;18.93;60.51;100589.41;5981822;29;20514;-89
2022/09/23 13:25:01;;;;;;;1.63;1.50;;;;;;;18.99;60.88;100598.44;5986751;29;20580;-89
2022/09/23 13:28:17;;;;;;;1.42;1.33;;;;;;;18.98;61.43;100594.16;5994279;29;20129;-89
2022/09/23 13:31:20;;;;;;;1.80;1.70;;;;;;;18.92;60.69;100586.00;5977778;29;20058;-89
2022/09/23 13:34:25;;;;;;;2.35;1.63;;;;;;;18.88;60.67;100589.13;5978225;29;20053;-89
2022/09/23 13:37:36;;;;;;;2.13;1.50;;;;;;;18.82;61.78;100579.34;5988371;29;20110;-90
2022/09/23 13:40:40;;;;;;;2.25;1.40;;;;;;;18.77;61.44;100579.06;5992013;29;20054;-89
2022/09/23 13:43:52;;;;;;;1.60;1.50;;;;;;;18.78;61.45;100578.06;5988674;29;20148;-89
2022/09/23 13:46:58;;;;;;;2.70;1.83;;;;;;;18.81;62.00;100575.91;5993000;29;20110;-89
2022/09/23 13:50:01;;;;;;;3.58;1.42;;;;;;;18.81;59.19;100567.25;5999894;29;20065;-89
2022/09/23 13:53:12;;;;;;;2.08;1.70;;;;;;;18.77;61.67;100566.75;6013453;29;20042;-90
2022/09/23 13:56:14;;;;;;;2.53;1.50;;;;;;;18.76;58.17;100572.16;6000734;29;20095;-89
2022/09/23 13:59:23;;;;;;;2.45;1.52;;;;;;;18.82;60.90;100574.09;6045262;29;20133;-89
2022/09/23 14:02:27;;;;;;;3.65;1.80;;;;;;;18.95;60.21;100576.94;6024629;29;20042;-89
2022/09/23 14:05:34;;;;;;;2.10;1.48;;;;;;;19.10;59.29;100569.13;6020210;29;20046;-89
2022/09/23 14:08:50;;;;;;;4.50;1.75;;;;;;;19.30;58.81;100567.69;6049903;29;20734;-89
2022/09/23 14:11:53;;;;;;;2.60;1.40;;;;;;;19.45;56.40;100561.63;6013096;29;20049;-89
2022/09/23 14:14:56;;;;;;;2.97;1.50;;;;;;;19.50;57.02;100561.91;6026814;29;20094;-90
2022/09/23 14:18:07;;;;;;;1.92;1.75;;;;;;;19.51;55.22;100556.50;6016631;29;20073;-89
2022/09/23 14:21:35;;;;;;;2.60;1.60;;;;;;;19.28;53.52;100555.72;6024335;29;20156;-90
2022/09/23 14:24:38;;;;;;;1.60;1.48;;;;;;;19.02;53.14;100554.28;6018917;29;20409;-89
2022/09/23 14:27:42;;;;;;;1.98;1.30;;;;;;;18.81;56.04;100546.25;6034566;29;20226;-90
2022/09/23 14:30:46;;;;;;;1.83;1.35;;;;;;;18.66;56.26;100549.59;6019473;29;20128;-90
2022/09/23 14:33:48;;;;;;;1.83;1.40;;;;;;;18.60;58.13;100552.88;6028843;29;20104;-89
2022/09/23 14:40:28;;;;;;;3.22;1.65;;;;;;;18.46;57.08;100545.78;6003983;29;20089;-89
2022/09/23 14:43:30;;;;;;;2.20;1.42;;;;;;;18.34;55.82;100545.34;6011924;29;20053;-89
2022/09/23 14:46:35;;;;;;;2.05;1.45;;;;;;;18.19;57.44;100539.19;6014237;29;20064;-89
2022/09/23 14:50:35;;;;;;;1.80;1.40;;;;;;;18.09;57.73;100544.63;5984712;29;20530;-89
2022/09/23 14:53:02;;;;;;;1.73;1.48;;;;;;;17.99;61.65;100544.03;6001572;29;20080;-90
2022/09/23 14:56:06;;;;;;;3.00;1.50;;;;;;;17.89;63.29;100546.84;6000364;29;20065;-89